Time;durP1;ratioP1;P1;durP2;ratioP2;P2;SDS_P1;SDS_P2;PMS_P1;PMS_P2;Temp;Humidity;BMP_temperature;BMP_pressure;BME280_temperature;BME280_humidity;BME280_pressure;Samples;Min_cycle;Max_cycle;Signal;HPM_P1;HPM_P2
2023/08/06 00:00:39;;;;;;;18.40;14.43;;;14.10;99.90;;;;;;5051343;28;20052;-84
2023/08/06 00:03:05;;;;;;;18.92;14.75;;;14.10;99.90;;;;;;5034563;28;20044;-84
2023/08/06 00:05:31;;;;;;;17.42;14.60;;;14.10;99.90;;;;;;5051464;28;20039;-84
2023/08/06 00:07:56;;;;;;;20.23;15.07;;;14.20;99.90;;;;;;5051286;28;20432;-85
2023/08/06 00:10:22;;;;;;;19.10;14.85;;;14.20;99.90;;;;;;5034243;28;20056;-83
2023/08/06 00:12:48;;;;;;;16.85;14.57;;;14.20;99.90;;;;;;5051188;28;20112;-84
2023/08/06 00:15:14;;;;;;;21.75;14.63;;;14.20;99.90;;;;;;5050970;28;20122;-84
2023/08/06 00:17:40;;;;;;;16.48;14.38;;;14.20;99.90;;;;;;5034673;28;20499;-84
2023/08/06 00:20:06;;;;;;;19.48;14.88;;;14.20;99.90;;;;;;5003829;28;20037;-84
2023/08/06 00:22:33;;;;;;;16.48;13.70;;;14.20;99.90;;;;;;5034611;28;20384;-85
2023/08/06 00:24:59;;;;;;;14.95;13.02;;;14.20;99.90;;;;;;5018449;28;20134;-84
2023/08/06 00:27:25;;;;;;;16.50;13.95;;;14.30;99.90;;;;;;5034404;28;20072;-83
2023/08/06 00:29:51;;;;;;;15.07;13.48;;;14.30;99.90;;;;;;5033851;28;20396;-84
2023/08/06 00:32:17;;;;;;;16.67;13.48;;;14.30;99.90;;;;;;5034162;28;20551;-84
2023/08/06 00:34:42;;;;;;;17.95;13.57;;;14.30;99.90;;;;;;5048875;28;20055;-84
2023/08/06 00:37:08;;;;;;;15.25;13.27;;;14.30;99.90;;;;;;5020417;28;20033;-84
2023/08/06 00:39:34;;;;;;;14.75;12.77;;;14.30;99.90;;;;;;5053198;28;20075;-85
2023/08/06 00:42:00;;;;;;;13.85;12.35;;;14.30;99.90;;;;;;5037074;28;20053;-84
2023/08/06 00:44:25;;;;;;;15.15;12.57;;;14.30;99.90;;;;;;5038830;28;20105;-84
2023/08/06 00:46:51;;;;;;;14.95;12.73;;;14.30;99.90;;;;;;5017807;28;20037;-84
2023/08/06 00:49:17;;;;;;;15.95;12.70;;;14.30;99.90;;;;;;5051996;28;20400;-84
2023/08/06 00:51:43;;;;;;;13.68;12.23;;;14.30;99.90;;;;;;5037798;28;20459;-84
2023/08/06 00:54:09;;;;;;;15.77;12.50;;;14.30;99.90;;;;;;5071208;28;20564;-85
2023/08/06 00:56:36;;;;;;;13.90;12.32;;;14.30;99.90;;;;;;5071157;28;20040;-84
2023/08/06 00:59:04;;;;;;;14.65;12.68;;;14.30;99.90;;;;;;5052425;28;20037;-85
2023/08/06 01:01:30;;;;;;;15.57;12.63;;;14.30;99.90;;;;;;5051193;28;21165;-84
2023/08/06 01:03:56;;;;;;;14.93;12.50;;;14.20;99.90;;;;;;5033904;28;20037;-84
2023/08/06 01:06:43;;;;;;;17.75;13.63;;;14.20;99.90;;;;;;5050057;28;20052;-84
2023/08/06 01:09:32;;;;;;;16.52;13.45;;;14.30;99.90;;;;;;5068148;28;20575;-84
2023/08/06 01:12:18;;;;;;;16.88;12.95;;;14.30;99.90;;;;;;5001937;28;20053;-84
2023/08/06 01:15:05;;;;;;;16.13;12.15;;;14.30;99.90;;;;;;5034159;28;20037;-84
2023/08/06 01:17:31;;;;;;;15.85;12.65;;;14.30;99.90;;;;;;5034034;28;20041;-84
2023/08/06 01:19:57;;;;;;;15.60;12.15;;;14.30;99.90;;;;;;5050632;28;20099;-85
2023/08/06 01:22:23;;;;;;;15.80;12.60;;;14.30;99.90;;;;;;5017291;28;20041;-84
2023/08/06 01:24:50;;;;;;;16.83;12.50;;;14.30;99.90;;;;;;5018175;28;20049;-85
2023/08/06 01:27:30;;;;;;;17.27;12.55;;;14.30;99.90;;;;;;5017803;28;20041;-85
2023/08/06 01:30:12;;;;;;;16.55;12.80;;;14.30;99.90;;;;;;5045925;28;20045;-84
2023/08/06 01:32:44;;;;;;;14.88;12.93;;;14.30;99.90;;;;;;5041242;28;20037;-85
2023/08/06 01:35:12;;;;;;;14.30;12.50;;;14.30;99.90;;;;;;5034042;28;20041;-86
2023/08/06 01:37:39;;;;;;;15.40;13.15;;;14.20;99.90;;;;;;5032798;28;20041;-86
2023/08/06 01:40:12;;;;;;;15.40;12.90;;;14.20;99.90;;;;;;5050684;28;20045;-85
2023/08/06 01:42:38;;;;;;;15.73;12.82;;;14.20;99.90;;;;;;5059797;28;20111;-85
2023/08/06 01:45:08;;;;;;;15.02;12.63;;;14.20;99.90;;;;;;5031529;28;20047;-85
2023/08/06 01:47:34;;;;;;;16.95;12.68;;;14.20;99.90;;;;;;5026103;28;20381;-85
2023/08/06 01:50:00;;;;;;;15.80;12.40;;;14.20;99.90;;;;;;5021340;28;20056;-85
2023/08/06 01:52:26;;;;;;;15.15;12.27;;;14.20;99.90;;;;;;5049291;28;20051;-85
2023/08/06 01:54:52;;;;;;;15.27;12.65;;;14.20;99.90;;;;;;5055148;28;20467;-85
2023/08/06 01:57:18;;;;;;;15.15;12.55;;;14.30;99.90;;;;;;5037269;28;20045;-85
2023/08/06 01:59:43;;;;;;;14.48;11.80;;;14.30;99.90;;;;;;5053891;28;20131;-85
2023/08/06 02:02:09;;;;;;;14.95;11.50;;;14.30;99.90;;;;;;5020811;28;20485;-85
2023/08/06 02:04:35;;;;;;;12.68;11.27;;;14.30;99.90;;;;;;5053486;28;20041;-84
2023/08/06 02:07:01;;;;;;;14.02;11.45;;;14.30;99.90;;;;;;5062568;28;20075;-85
2023/08/06 02:09:26;;;;;;;16.60;12.23;;;14.30;99.90;;;;;;5053739;28;20110;-85
2023/08/06 02:11:52;;;;;;;16.50;12.68;;;14.30;99.90;;;;;;5037422;28;20052;-85
2023/08/06 02:14:18;;;;;;;15.05;12.95;;;14.30;99.90;;;;;;5036817;28;20190;-84
2023/08/06 02:16:43;;;;;;;15.93;12.68;;;14.30;99.90;;;;;;5036895;28;20492;-84
2023/08/06 02:19:09;;;;;;;16.25;13.23;;;14.30;99.90;;;;;;5040060;28;20400;-84
2023/08/06 02:21:35;;;;;;;14.02;12.45;;;14.30;99.90;;;;;;5056694;28;20043;-85
2023/08/06 02:24:00;;;;;;;19.27;13.40;;;14.30;99.90;;;;;;5039359;28;20029;-84
2023/08/06 02:26:26;;;;;;;15.00;12.77;;;14.20;99.90;;;;;;5037032;28;20033;-85
2023/08/06 02:28:52;;;;;;;15.57;13.85;;;14.30;99.90;;;;;;5053387;28;20098;-85
2023/08/06 02:31:17;;;;;;;17.17;13.68;;;14.30;99.90;;;;;;5019819;28;20039;-85
2023/08/06 02:33:43;;;;;;;17.52;13.90;;;14.30;99.90;;;;;;5032758;28;20045;-85
2023/08/06 02:36:09;;;;;;;16.60;13.95;;;14.30;99.90;;;;;;5000150;28;20040;-85
2023/08/06 02:38:35;;;;;;;17.42;13.57;;;14.30;99.90;;;;;;5045647;28;20037;-85
2023/08/06 02:41:04;;;;;;;15.23;13.48;;;14.30;99.90;;;;;;5038252;28;20091;-85
2023/08/06 02:43:30;;;;;;;18.08;13.52;;;14.30;99.90;;;;;;5053206;28;20041;-85
2023/08/06 02:46:02;;;;;;;18.10;14.27;;;14.30;99.90;;;;;;5036434;28;20094;-85
2023/08/06 02:48:28;;;;;;;;;;;14.30;99.90;;;;;;5038744;28;20041;-85
2023/08/06 02:50:57;;;;;;;15.75;12.73;;;14.30;99.90;;;;;;5020564;28;19963;-85
2023/08/06 02:53:23;;;;;;;14.65;12.90;;;14.30;99.90;;;;;;5036753;28;20049;-85
2023/08/06 02:55:48;;;;;;;15.90;13.40;;;14.30;99.90;;;;;;5036172;28;20378;-85
2023/08/06 02:58:15;;;;;;;16.02;13.25;;;14.30;99.90;;;;;;5036440;28;20080;-85
2023/08/06 03:00:42;;;;;;;15.98;13.93;;;14.30;99.90;;;;;;5052918;28;20527;-85
2023/08/06 03:03:07;;;;;;;17.25;14.02;;;14.30;99.90;;;;;;5052593;28;20495;-85
2023/08/06 03:05:33;;;;;;;16.40;13.00;;;14.30;99.90;;;;;;5040347;28;20048;-85
2023/08/06 03:07:59;;;;;;;15.57;13.90;;;14.30;99.90;;;;;;5053629;28;20539;-85
2023/08/06 03:10:24;;;;;;;15.63;13.75;;;14.20;99.90;;;;;;5036508;28;20049;-85
2023/08/06 03:12:50;;;;;;;17.60;13.43;;;14.20;99.90;;;;;;5061796;28;20071;-85
2023/08/06 03:15:16;;;;;;;15.38;12.77;;;14.10;99.90;;;;;;5039534;28;20115;-85
2023/08/06 03:17:42;;;;;;;15.70;13.73;;;14.10;99.90;;;;;;5072530;28;20095;-82
2023/08/06 03:20:08;;;;;;;14.43;12.93;;;14.10;99.90;;;;;;5059592;28;20052;-82
2023/08/06 03:22:34;;;;;;;13.75;12.05;;;14.10;99.90;;;;;;5018068;28;20052;-82
2023/08/06 03:24:59;;;;;;;15.02;13.43;;;14.00;99.90;;;;;;5050876;28;20369;-82
2023/08/06 03:27:25;;;;;;;17.13;13.90;;;14.00;99.90;;;;;;5034232;28;20048;-82
2023/08/06 03:29:51;;;;;;;16.85;13.98;;;14.00;99.90;;;;;;5052228;28;20040;-82
2023/08/06 03:32:16;;;;;;;17.67;14.35;;;13.90;99.90;;;;;;5017872;28;20044;-82
2023/08/06 03:34:42;;;;;;;15.50;13.80;;;13.90;99.90;;;;;;5052352;28;20049;-81
2023/08/06 03:37:08;;;;;;;15.20;13.45;;;13.90;99.90;;;;;;5034147;28;20037;-82
2023/08/06 03:39:34;;;;;;;15.05;13.27;;;13.90;99.90;;;;;;5017560;28;20033;-82
2023/08/06 03:41:59;;;;;;;18.20;13.77;;;13.80;99.90;;;;;;5025747;28;20052;-82
2023/08/06 03:44:27;;;;;;;16.67;13.60;;;13.80;99.90;;;;;;5023375;28;20071;-82
2023/08/06 03:46:52;;;;;;;16.20;13.77;;;13.80;99.90;;;;;;5017983;28;20045;-81
2023/08/06 03:49:18;;;;;;;15.10;13.07;;;13.80;99.90;;;;;;5031634;28;20041;-82
2023/08/06 03:51:44;;;;;;;16.17;13.65;;;13.70;99.90;;;;;;5017546;28;20045;-82
2023/08/06 03:54:09;;;;;;;13.98;12.55;;;13.80;99.90;;;;;;5017838;28;20140;-82
2023/08/06 03:56:35;;;;;;;15.05;13.48;;;13.70;99.90;;;;;;5033918;28;20094;-82
2023/08/06 03:59:01;;;;;;;20.20;14.73;;;13.70;99.90;;;;;;5007435;28;20049;-82
2023/08/06 04:01:26;;;;;;;17.65;14.07;;;13.70;99.90;;;;;;5010600;28;20372;-82
2023/08/06 04:03:52;;;;;;;16.73;13.85;;;13.70;99.90;;;;;;5037830;28;20065;-82
2023/08/06 04:06:18;;;;;;;14.75;13.18;;;13.70;99.90;;;;;;5017299;28;20048;-83
2023/08/06 04:08:43;;;;;;;16.27;12.95;;;13.70;99.90;;;;;;5016708;28;20600;-82
2023/08/06 04:11:09;;;;;;;37.40;15.15;;;13.60;99.90;;;;;;5033368;28;20041;-82
2023/08/06 04:13:35;;;;;;;25.88;16.15;;;13.60;99.90;;;;;;5016578;28;20048;-82
2023/08/06 04:16:02;;;;;;;18.75;13.52;;;13.50;99.90;;;;;;5030805;28;20041;-82
2023/08/06 04:18:28;;;;;;;16.35;13.25;;;13.40;99.90;;;;;;5037000;28;20126;-82
2023/08/06 04:20:55;;;;;;;16.00;13.50;;;13.40;99.90;;;;;;5029742;28;20075;-82
2023/08/06 04:23:21;;;;;;;16.83;12.45;;;13.40;99.90;;;;;;5024403;28;20041;-83
2023/08/06 04:25:46;;;;;;;16.70;12.55;;;13.40;99.90;;;;;;5049872;28;20043;-83
2023/08/06 04:28:12;;;;;;;18.65;14.20;;;13.40;99.90;;;;;;5033384;28;20036;-82
2023/08/06 04:30:38;;;;;;;18.52;14.50;;;13.40;99.90;;;;;;5050553;28;20037;-82
2023/08/06 04:33:04;;;;;;;19.70;13.23;;;13.40;99.90;;;;;;5033799;28;20044;-82
2023/08/06 04:35:29;;;;;;;26.17;15.02;;;13.40;99.90;;;;;;5033743;28;20047;-82
2023/08/06 04:37:55;;;;;;;16.92;12.70;;;13.30;99.90;;;;;;5024972;28;20546;-82
2023/08/06 04:40:21;;;;;;;17.23;12.73;;;13.30;99.90;;;;;;5016728;28;20053;-82
2023/08/06 04:42:47;;;;;;;15.68;12.85;;;13.30;99.90;;;;;;5033339;28;20063;-82
2023/08/06 04:45:12;;;;;;;21.80;14.63;;;13.20;99.90;;;;;;5017234;28;20044;-82
2023/08/06 04:47:38;;;;;;;19.35;13.75;;;13.20;99.90;;;;;;5017458;28;20029;-82
2023/08/06 04:50:04;;;;;;;19.02;14.27;;;13.20;99.90;;;;;;5033390;28;20566;-82
2023/08/06 04:52:32;;;;;;;16.70;13.43;;;13.30;99.90;;;;;;4997787;28;20408;-83
2023/08/06 04:54:58;;;;;;;16.13;12.93;;;13.30;99.90;;;;;;5014224;28;20041;-82
2023/08/06 04:57:23;;;;;;;29.38;16.05;;;13.30;99.90;;;;;;5027271;28;20090;-82
2023/08/06 04:59:50;;;;;;;15.55;13.55;;;13.30;99.90;;;;;;5033240;28;20037;-82
2023/08/06 05:02:15;;;;;;;22.52;13.93;;;13.40;99.90;;;;;;5013312;28;20037;-82
2023/08/06 05:04:41;;;;;;;17.45;13.77;;;13.40;99.90;;;;;;5056250;28;20036;-82
2023/08/06 05:07:07;;;;;;;22.63;13.65;;;13.40;99.90;;;;;;5016772;28;20045;-83
2023/08/06 05:09:33;;;;;;;14.45;12.10;;;13.40;99.90;;;;;;5049743;28;20081;-82
2023/08/06 05:12:02;;;;;;;18.33;13.65;;;13.40;99.90;;;;;;5060395;28;20044;-83
2023/08/06 05:14:28;;;;;;;22.55;15.15;;;13.40;99.90;;;;;;5056698;28;20040;-82
2023/08/06 05:16:53;;;;;;;18.00;14.40;;;13.40;99.90;;;;;;5049340;28;20506;-82
2023/08/06 05:19:19;;;;;;;21.63;15.75;;;13.50;99.90;;;;;;5032776;28;20048;-82
2023/08/06 05:21:45;;;;;;;17.10;14.52;;;13.50;99.90;;;;;;5036937;28;20040;-82
2023/08/06 05:24:10;;;;;;;19.08;14.95;;;13.50;99.90;;;;;;5055283;28;20222;-82
2023/08/06 05:26:36;;;;;;;17.90;15.15;;;13.60;99.90;;;;;;5054852;28;20087;-82
2023/08/06 05:29:02;;;;;;;19.13;15.35;;;13.60;99.90;;;;;;5020546;28;20048;-82
2023/08/06 05:31:28;;;;;;;19.15;15.23;;;13.70;99.90;;;;;;5036740;28;20124;-82
2023/08/06 05:33:54;;;;;;;21.10;14.57;;;13.80;99.90;;;;;;5041728;28;20036;-82
2023/08/06 05:36:21;;;;;;;19.42;15.23;;;13.80;99.90;;;;;;5033453;28;20158;-82
2023/08/06 05:38:47;;;;;;;19.50;15.52;;;13.90;99.90;;;;;;5020267;28;20051;-82
2023/08/06 05:41:13;;;;;;;17.52;14.85;;;13.90;99.90;;;;;;5042852;28;20049;-83
2023/08/06 05:43:39;;;;;;;17.60;15.43;;;14.00;99.90;;;;;;5055104;28;20526;-82
2023/08/06 05:46:05;;;;;;;18.33;15.63;;;14.00;99.90;;;;;;5039032;28;20059;-82
2023/08/06 05:48:31;;;;;;;20.02;15.90;;;14.10;99.90;;;;;;5023909;28;20579;-82
2023/08/06 05:50:58;;;;;;;20.98;15.75;;;14.10;99.90;;;;;;5043002;28;20044;-82
2023/08/06 05:53:24;;;;;;;17.48;14.75;;;14.20;99.90;;;;;;5045481;28;20493;-83
2023/08/06 05:55:50;;;;;;;21.55;16.35;;;14.20;99.90;;;;;;5044959;28;20045;-82
2023/08/06 05:58:16;;;;;;;17.77;15.48;;;14.20;99.90;;;;;;5061817;28;20079;-82
2023/08/06 06:00:42;;;;;;;20.00;15.85;;;14.20;99.90;;;;;;5057696;28;20045;-81
2023/08/06 06:03:08;;;;;;;22.17;17.48;;;14.20;99.90;;;;;;5036111;28;20195;-81
2023/08/06 06:05:33;;;;;;;18.88;15.20;;;14.30;99.90;;;;;;5037483;28;20075;-81
2023/08/06 06:07:59;;;;;;;17.30;14.07;;;14.30;99.90;;;;;;5029085;28;20074;-82
2023/08/06 06:10:24;;;;;;;21.83;16.58;;;14.30;99.90;;;;;;5003429;28;20476;-81
2023/08/06 06:12:50;;;;;;;19.40;15.57;;;14.30;99.90;;;;;;5032987;28;20045;-82
2023/08/06 06:15:16;;;;;;;22.48;17.25;;;14.40;99.90;;;;;;5016476;28;20037;-82
2023/08/06 06:17:42;;;;;;;18.10;14.90;;;14.40;99.90;;;;;;5030024;28;20767;-82
2023/08/06 06:20:08;;;;;;;20.13;16.75;;;14.40;99.90;;;;;;5035675;28;20455;-82
2023/08/06 06:22:33;;;;;;;18.65;14.63;;;14.50;99.90;;;;;;5015583;28;20088;-82
2023/08/06 06:24:59;;;;;;;17.42;15.52;;;14.50;99.90;;;;;;5042815;28;20115;-82
2023/08/06 06:27:25;;;;;;;18.38;15.68;;;14.50;99.90;;;;;;5044230;28;20078;-81
2023/08/06 06:29:52;;;;;;;20.65;15.98;;;14.50;99.90;;;;;;5052929;28;20040;-82
2023/08/06 06:32:18;;;;;;;18.38;15.77;;;14.50;99.90;;;;;;5023463;28;20049;-83
2023/08/06 06:34:43;;;;;;;17.88;15.18;;;14.50;99.90;;;;;;5051623;28;20060;-82
2023/08/06 06:37:09;;;;;;;17.67;15.70;;;14.50;99.90;;;;;;5035213;28;20090;-82
2023/08/06 06:39:35;;;;;;;18.42;15.07;;;14.50;99.90;;;;;;5051896;28;20052;-81
2023/08/06 06:42:00;;;;;;;20.70;16.13;;;14.50;99.90;;;;;;5003092;28;20045;-82
2023/08/06 06:44:26;;;;;;;15.75;13.95;;;14.60;99.90;;;;;;5037809;28;20392;-83
2023/08/06 06:46:52;;;;;;;16.88;14.93;;;14.60;99.90;;;;;;5026982;28;20535;-81
2023/08/06 06:49:17;;;;;;;19.15;15.20;;;14.60;99.90;;;;;;5040614;28;20040;-82
2023/08/06 06:51:43;;;;;;;15.45;13.82;;;14.60;99.90;;;;;;5021464;28;20110;-83
2023/08/06 06:54:09;;;;;;;16.67;14.80;;;14.60;99.90;;;;;;5035509;28;20037;-82
2023/08/06 06:56:35;;;;;;;15.63;13.23;;;14.60;99.90;;;;;;5043128;28;20468;-82
2023/08/06 06:59:00;;;;;;;13.88;12.40;;;14.60;99.90;;;;;;5035140;28;20041;-83
2023/08/06 07:01:26;;;;;;;16.95;13.77;;;14.60;99.90;;;;;;5051680;28;20045;-81
2023/08/06 07:03:52;;;;;;;15.13;13.13;;;14.70;99.90;;;;;;5019268;28;20473;-83
2023/08/06 07:06:18;;;;;;;16.33;14.50;;;14.70;99.90;;;;;;5044260;28;20048;-83
2023/08/06 07:08:44;;;;;;;16.52;14.48;;;14.70;99.90;;;;;;5010366;28;20037;-82
2023/08/06 07:11:10;;;;;;;15.93;14.10;;;14.70;99.90;;;;;;5034735;28;20041;-83
2023/08/06 07:13:36;;;;;;;18.52;13.98;;;14.70;99.90;;;;;;5035310;28;20040;-82
2023/08/06 07:16:02;;;;;;;17.80;15.77;;;14.80;99.90;;;;;;5035996;28;20037;-83
2023/08/06 07:18:28;;;;;;;15.95;13.52;;;14.80;99.90;;;;;;5052495;28;20481;-82
2023/08/06 07:20:54;;;;;;;17.13;15.07;;;14.80;99.90;;;;;;5018889;28;20063;-82
2023/08/06 07:23:24;;;;;;;16.63;14.00;;;14.90;99.90;;;;;;5035592;28;20118;-83
2023/08/06 07:25:50;;;;;;;16.10;14.40;;;14.90;99.90;;;;;;5032914;28;20044;-83
2023/08/06 07:28:16;;;;;;;17.17;15.32;;;14.90;99.90;;;;;;5037127;28;20032;-82
2023/08/06 07:30:43;;;;;;;18.65;15.77;;;14.90;99.90;;;;;;5055391;28;20044;-82
2023/08/06 07:33:09;;;;;;;15.98;14.27;;;14.90;99.90;;;;;;5022583;28;20045;-83
2023/08/06 07:35:35;;;;;;;16.98;15.15;;;15.00;99.90;;;;;;5035440;28;20277;-81
2023/08/06 07:38:01;;;;;;;17.17;14.57;;;15.00;99.90;;;;;;5032960;28;20071;-83
2023/08/06 07:40:27;;;;;;;18.45;15.60;;;15.00;99.90;;;;;;5036210;28;20056;-82
2023/08/06 07:42:53;;;;;;;18.38;14.38;;;15.00;99.90;;;;;;5050186;28;20084;-83
2023/08/06 07:45:19;;;;;;;15.52;13.82;;;15.10;99.90;;;;;;5034254;28;20662;-82
2023/08/06 07:47:45;;;;;;;16.92;14.55;;;15.20;99.90;;;;;;5017924;28;20501;-82
2023/08/06 07:50:11;;;;;;;15.65;14.05;;;15.20;99.90;;;;;;5038690;28;20063;-83
2023/08/06 07:52:36;;;;;;;16.00;14.35;;;15.30;99.90;;;;;;5037686;28;20441;-83
2023/08/06 07:55:04;;;;;;;17.77;15.32;;;15.30;99.90;;;;;;4999610;28;20049;-83
2023/08/06 07:57:34;;;;;;;17.30;15.40;;;15.40;99.90;;;;;;5042613;28;20434;-83
2023/08/06 08:00:00;;;;;;;16.20;14.60;;;15.50;99.90;;;;;;5032840;28;20037;-82
2023/08/06 08:02:26;;;;;;;17.52;15.73;;;15.50;99.90;;;;;;5034534;28;20174;-83
2023/08/06 08:04:52;;;;;;;18.15;16.25;;;15.60;99.90;;;;;;5037562;28;20120;-83
2023/08/06 08:07:18;;;;;;;17.88;15.98;;;15.60;99.90;;;;;;5038068;28;20151;-82
2023/08/06 08:09:48;;;;;;;18.17;16.30;;;15.70;99.90;;;;;;5033562;28;20041;-83
2023/08/06 08:12:14;;;;;;;17.45;15.40;;;15.80;99.90;;;;;;5016230;28;20066;-82
2023/08/06 08:14:39;;;;;;;17.30;15.50;;;15.80;99.90;;;;;;5027065;28;20128;-83
2023/08/06 08:17:05;;;;;;;15.43;13.93;;;15.90;99.90;;;;;;5019541;28;20187;-83
2023/08/06 08:19:32;;;;;;;14.15;12.82;;;15.90;99.90;;;;;;5034887;28;20130;-83
2023/08/06 08:21:59;;;;;;;14.32;12.82;;;15.90;99.90;;;;;;5045342;28;20458;-82
2023/08/06 08:24:25;;;;;;;13.30;11.90;;;16.00;99.90;;;;;;5015251;28;20050;-82
2023/08/06 08:26:52;;;;;;;13.80;12.55;;;16.10;99.90;;;;;;5013464;28;20090;-82
2023/08/06 08:29:19;;;;;;;14.90;13.32;;;16.30;99.90;;;;;;5055453;28;20041;-81
2023/08/06 08:31:44;;;;;;;13.50;12.30;;;16.50;99.90;;;;;;5017178;28;20069;-82
2023/08/06 08:34:10;;;;;;;13.02;11.27;;;16.70;99.90;;;;;;5045858;28;20502;-82
2023/08/06 08:36:36;;;;;;;13.05;11.75;;;16.80;99.90;;;;;;5018809;28;20369;-82
2023/08/06 08:39:01;;;;;;;12.50;11.30;;;16.60;99.90;;;;;;5016260;28;20044;-82
2023/08/06 08:41:31;;;;;;;12.10;10.90;;;16.60;99.90;;;;;;5016665;28;20061;-82
2023/08/06 08:44:02;;;;;;;13.75;11.48;;;16.60;99.90;;;;;;5051537;28;20037;-82
2023/08/06 08:46:30;;;;;;;11.23;9.93;;;16.60;99.90;;;;;;5025255;28;20112;-82
2023/08/06 08:48:56;;;;;;;16.65;11.57;;;16.70;99.90;;;;;;5018537;28;20035;-82
2023/08/06 08:51:23;;;;;;;12.32;11.13;;;16.70;99.90;;;;;;5027518;28;20120;-82
2023/08/06 08:53:50;;;;;;;10.90;9.80;;;16.80;99.90;;;;;;5054603;28;20040;-81
2023/08/06 08:56:16;;;;;;;11.32;10.23;;;16.90;99.90;;;;;;5045424;28;20043;-82
2023/08/06 08:58:42;;;;;;;12.50;10.15;;;16.90;99.90;;;;;;5041308;28;20128;-81
2023/08/06 09:01:09;;;;;;;11.57;10.38;;;17.00;99.90;;;;;;5033703;28;20787;-82
2023/08/06 09:03:36;;;;;;;11.80;10.13;;;17.10;99.90;;;;;;5015895;28;20488;-82
2023/08/06 09:06:03;;;;;;;10.52;9.52;;;17.20;99.90;;;;;;5009220;28;20041;-82
2023/08/06 09:08:37;;;;;;;11.60;10.27;;;17.30;99.90;;;;;;5048655;28;20037;-83
2023/08/06 09:11:05;;;;;;;11.27;10.23;;;17.40;99.90;;;;;;5043361;28;20111;-83
2023/08/06 09:13:30;;;;;;;9.57;8.68;;;17.40;99.90;;;;;;5039939;28;20120;-83
2023/08/06 09:15:56;;;;;;;10.68;9.68;;;17.40;99.90;;;;;;5037860;28;20128;-83
2023/08/06 09:18:29;;;;;;;9.90;9.00;;;17.40;99.90;;;;;;5053216;28;20059;-83
2023/08/06 09:20:56;;;;;;;10.93;8.93;;;17.50;99.90;;;;;;5059465;28;20424;-82
2023/08/06 09:23:29;;;;;;;9.32;8.43;;;17.50;99.90;;;;;;5033169;28;20083;-83
2023/08/06 09:25:55;;;;;;;9.63;8.70;;;17.70;99.90;;;;;;5047141;28;20041;-83
2023/08/06 09:28:21;;;;;;;9.82;8.68;;;17.90;99.90;;;;;;5053956;28;20049;-82
2023/08/06 09:30:48;;;;;;;9.25;8.45;;;18.00;99.90;;;;;;5037651;28;20041;-81
2023/08/06 09:33:18;;;;;;;8.98;7.38;;;18.00;99.90;;;;;;5028396;28;20310;-82
2023/08/06 09:35:46;;;;;;;8.77;7.05;;;18.10;99.90;;;;;;5047258;28;20041;-82
2023/08/06 09:38:12;;;;;;;9.43;7.20;;;18.20;99.90;;;;;;5033436;28;20051;-82
2023/08/06 09:40:40;;;;;;;8.05;7.32;;;18.40;99.90;;;;;;5049486;28;20068;-82
2023/08/06 09:43:06;;;;;;;8.50;7.70;;;18.60;99.90;;;;;;5033263;28;20142;-81
2023/08/06 09:45:37;;;;;;;8.75;7.93;;;18.80;99.90;;;;;;5050138;28;20131;-83
2023/08/06 09:48:07;;;;;;;8.95;7.85;;;18.90;99.90;;;;;;5050214;28;20171;-82
2023/08/06 09:50:38;;;;;;;9.90;8.15;;;18.80;99.90;;;;;;5049911;28;20045;-81
2023/08/06 09:53:06;;;;;;;9.60;7.60;;;18.80;99.90;;;;;;5043307;28;20041;-81
2023/08/06 09:55:33;;;;;;;8.50;7.70;;;19.00;99.90;;;;;;5003193;28;20043;-81
2023/08/06 09:57:59;;;;;;;6.80;6.18;;;19.20;99.90;;;;;;5032721;28;20096;-82
2023/08/06 10:00:26;;;;;;;7.00;6.30;;;19.30;99.90;;;;;;5012848;28;20045;-81
2023/08/06 10:02:55;;;;;;;7.18;5.90;;;19.30;99.90;;;;;;5048035;28;20033;-81
2023/08/06 10:05:23;;;;;;;6.07;5.57;;;19.20;99.90;;;;;;5031102;28;20060;-81
2023/08/06 10:07:50;;;;;;;6.80;5.95;;;19.10;99.90;;;;;;5050938;28;20040;-81
2023/08/06 10:10:16;;;;;;;6.25;5.68;;;19.10;99.90;;;;;;5053646;28;20087;-82
2023/08/06 10:12:52;;;;;;;5.82;5.22;;;19.30;99.90;;;;;;5030552;28;20045;-82
2023/08/06 10:15:24;;;;;;;6.30;5.60;;;19.60;99.90;;;;;;5040244;28;20080;-81
2023/08/06 10:17:53;;;;;;;6.63;5.38;;;19.80;99.90;;;;;;5052882;28;20041;-81
2023/08/06 10:20:21;;;;;;;5.88;4.65;;;19.80;99.90;;;;;;5052873;28;20049;-82
2023/08/06 10:23:01;;;;;;;5.88;5.20;;;19.60;99.90;;;;;;5053289;28;20049;-82
2023/08/06 10:25:31;;;;;;;5.35;4.85;;;19.60;99.90;;;;;;5020459;28;20571;-81
2023/08/06 10:27:57;;;;;;;5.53;4.38;;;19.60;99.90;;;;;;5037737;28;20055;-82
2023/08/06 10:30:31;;;;;;;4.68;4.07;;;19.50;99.90;;;;;;5055427;28;20044;-82
2023/08/06 10:33:04;;;;;;;5.05;4.32;;;19.50;99.90;;;;;;5057460;28;20048;-81
2023/08/06 10:35:35;;;;;;;5.28;4.05;;;19.40;99.90;;;;;;5036196;28;20091;-82
2023/08/06 10:38:01;;;;;;;;;;;19.50;99.90;;;;;;5036251;28;20041;-81
2023/08/06 10:40:27;;;;;;;5.72;4.07;;;19.70;99.90;;;;;;5040855;28;20070;-81
2023/08/06 10:42:52;;;;;;;3.55;3.25;;;19.80;99.90;;;;;;5052685;28;20044;-82
2023/08/06 10:45:19;;;;;;;3.60;3.30;;;19.90;99.90;;;;;;5036398;28;20535;-82
2023/08/06 10:47:45;;;;;;;4.30;3.10;;;19.90;99.90;;;;;;5052003;28;20115;-82
2023/08/06 10:50:17;;;;;;;3.45;3.15;;;19.80;99.90;;;;;;5035825;28;20040;-82
2023/08/06 10:52:47;;;;;;;3.22;2.90;;;19.80;99.90;;;;;;5035789;28;20099;-84
2023/08/06 10:55:26;;;;;;;5.80;3.50;;;19.80;99.90;;;;;;5035261;28;20045;-82
2023/08/06 10:57:52;;;;;;;3.20;2.90;;;19.90;99.90;;;;;;5037968;28;20493;-81
2023/08/06 11:00:18;;;;;;;5.28;2.70;;;19.90;99.90;;;;;;5049132;28;20114;-82
2023/08/06 11:02:46;;;;;;;3.08;2.78;;;19.90;99.90;;;;;;5052242;28;20476;-84
2023/08/06 11:05:12;;;;;;;2.65;2.45;;;19.80;99.90;;;;;;5056807;28;20090;-82
2023/08/06 11:07:39;;;;;;;2.88;2.58;;;19.70;99.90;;;;;;5048644;28;20431;-81
2023/08/06 11:10:08;;;;;;;4.30;2.72;;;19.60;99.90;;;;;;5021138;28;20396;-83
2023/08/06 11:12:35;;;;;;;2.67;2.17;;;19.60;99.90;;;;;;5035713;28;20040;-83
2023/08/06 11:15:02;;;;;;;2.50;2.30;;;19.70;99.90;;;;;;5051085;28;20500;-83
2023/08/06 11:17:29;;;;;;;3.72;2.17;;;19.90;99.90;;;;;;5049203;28;20075;-82
2023/08/06 11:19:55;;;;;;;4.65;2.40;;;20.00;99.90;;;;;;5053272;28;20045;-83
2023/08/06 11:22:22;;;;;;;2.72;2.33;;;20.10;99.90;;;;;;5039330;28;20088;-83
2023/08/06 11:24:48;;;;;;;2.45;2.13;;;20.00;99.90;;;;;;5051072;28;20040;-82
2023/08/06 11:27:15;;;;;;;2.60;2.33;;;20.00;99.90;;;;;;5036133;28;20041;-82
2023/08/06 11:29:42;;;;;;;2.22;2.03;;;19.90;99.90;;;;;;5049760;28;20048;-82
2023/08/06 11:32:08;;;;;;;2.55;1.92;;;19.80;99.90;;;;;;5034433;28;20047;-81
2023/08/06 11:34:35;;;;;;;2.78;2.20;;;19.70;99.90;;;;;;5054927;28;20040;-84
2023/08/06 11:37:03;;;;;;;3.53;2.20;;;19.80;99.90;;;;;;5009975;28;20037;-82
2023/08/06 11:39:28;;;;;;;2.58;2.10;;;19.80;99.90;;;;;;5037338;28;20037;-81
2023/08/06 11:41:54;;;;;;;2.97;2.10;;;19.90;99.90;;;;;;5043095;28;20106;-83
2023/08/06 11:44:22;;;;;;;2.65;2.13;;;20.00;99.90;;;;;;5017746;28;20401;-82
2023/08/06 11:46:55;;;;;;;1.92;1.80;;;20.30;99.90;;;;;;5050484;28;20041;-82
2023/08/06 11:49:45;;;;;;;2.95;2.20;;;20.40;99.90;;;;;;5040334;28;20041;-81
2023/08/06 11:52:13;;;;;;;2.90;2.60;;;20.40;99.90;;;;;;5058253;28;20037;-81
2023/08/06 11:54:39;;;;;;;2.28;2.10;;;20.30;99.90;;;;;;5034052;28;20120;-82
2023/08/06 11:57:08;;;;;;;2.95;2.65;;;20.20;99.90;;;;;;5050365;28;20143;-81
2023/08/06 11:59:34;;;;;;;3.20;2.65;;;20.10;99.90;;;;;;5042677;28;20053;-81
2023/08/06 12:02:02;;;;;;;2.72;2.50;;;20.00;99.90;;;;;;5050308;28;20581;-80
2023/08/06 12:04:28;;;;;;;3.80;2.63;;;20.00;99.90;;;;;;5055921;28;20565;-81
2023/08/06 12:06:54;;;;;;;3.33;2.70;;;20.10;99.90;;;;;;5035649;28;20033;-83
2023/08/06 12:09:20;;;;;;;3.95;2.60;;;20.10;99.90;;;;;;5050999;28;20059;-82
2023/08/06 12:11:46;;;;;;;2.28;2.08;;;20.30;99.90;;;;;;5050020;28;20048;-80
2023/08/06 12:14:12;;;;;;;2.58;2.25;;;20.50;99.90;;;;;;5030036;28;20036;-81
2023/08/06 12:16:37;;;;;;;3.90;2.45;;;20.70;99.90;;;;;;5035456;28;20077;-80
2023/08/06 12:19:04;;;;;;;3.30;2.40;;;20.70;99.90;;;;;;5047993;28;20033;-81
2023/08/06 12:21:29;;;;;;;2.70;2.35;;;20.60;99.90;;;;;;5062270;28;20037;-81
2023/08/06 12:23:55;;;;;;;2.60;2.40;;;20.60;99.90;;;;;;5023057;28;20037;-80
2023/08/06 12:26:21;;;;;;;3.65;2.50;;;20.40;99.90;;;;;;4999891;28;20113;-81
2023/08/06 12:28:46;;;;;;;2.78;2.30;;;20.30;99.90;;;;;;5033432;28;20836;-81
2023/08/06 12:31:12;;;;;;;3.13;2.28;;;20.30;99.90;;;;;;5050142;28;20139;-83